createdAt,value
2023-01-19T01:09:31.880Z,26.23
2023-01-19T20:12:01.065Z,32.28
2023-01-19T20:14:31.894Z,32.37
2023-01-19T20:17:02.316Z,32.22
2023-01-19T20:19:33.813Z,32.12
2023-01-19T20:22:04.104Z,32.12
2023-01-19T20:24:34.523Z,32.36
2023-01-19T20:27:04.759Z,32.11
2023-01-19T20:29:35.459Z,31.29
2023-01-19T20:32:06.557Z,31.16
2023-01-19T20:34:37.792Z,31.29
2023-01-19T20:37:08.918Z,30.91
2023-01-19T20:39:39.537Z,31.18
2023-01-19T20:42:14.851Z,31.50
2023-01-19T20:44:45.504Z,31.64
2023-01-19T20:47:16.048Z,31.85
2023-01-19T20:49:46.544Z,31.82
2023-01-19T20:52:17.171Z,31.99
2023-01-19T20:54:47.771Z,32.01
2023-01-19T20:57:18.319Z,31.55
2023-01-19T20:59:48.811Z,31.56
2023-01-19T21:02:19.802Z,31.83
2023-01-19T21:04:54.318Z,31.54
2023-01-19T21:07:24.772Z,31.29
2023-01-19T21:09:55.659Z,30.96
2023-01-19T21:12:26.372Z,30.76
2023-01-19T21:14:56.952Z,30.53
2023-01-19T21:17:27.174Z,30.23
2023-01-19T21:19:57.659Z,30.40
2023-01-19T21:22:28.984Z,30.23
2023-01-19T21:24:59.958Z,30.38
2023-01-19T21:27:30.773Z,30.50
2023-01-19T21:30:03.406Z,30.51
2023-01-19T21:32:33.888Z,30.40
2023-01-19T21:35:04.869Z,30.59
2023-01-19T21:37:35.879Z,30.42
2023-01-19T21:40:07.256Z,30.46
2023-01-19T21:42:37.704Z,30.33
2023-01-19T21:45:10.840Z,30.35
2023-01-19T21:47:41.699Z,30.04
2023-01-19T21:50:12.859Z,29.89
2023-01-19T21:52:43.751Z,29.69
2023-01-19T21:55:14.758Z,29.66
2023-01-19T21:57:45.675Z,29.33
2023-01-19T22:00:16.440Z,29.08
2023-01-19T22:03:02.374Z,28.91
2023-01-19T22:05:38.407Z,28.54
2023-01-19T22:08:09.725Z,28.32
2023-01-19T22:10:40.656Z,28.12
2023-01-19T22:13:11.576Z,27.89
2023-01-19T22:15:42.223Z,27.68
2023-01-19T22:18:13.249Z,27.46
2023-01-19T22:20:44.505Z,27.51
2023-01-19T22:23:15.453Z,27.26
2023-01-19T22:25:46.963Z,27.29
2023-01-19T22:28:17.998Z,27.02
2023-01-19T22:30:49.455Z,27.01
2023-01-19T22:33:20.669Z,27.14
2023-01-19T22:35:51.760Z,27.01
2023-01-19T22:38:23.468Z,27.01
2023-01-19T22:40:53.997Z,26.97
2023-01-19T22:43:25.309Z,26.84
2023-01-19T22:45:56.970Z,26.65
2023-01-19T22:48:29.271Z,26.61
2023-01-19T22:50:59.681Z,26.49
2023-01-19T22:53:33.712Z,26.40
2023-01-19T22:56:15.004Z,26.46
2023-01-19T22:58:47.999Z,26.51
2023-01-19T23:01:24.918Z,26.48
2023-01-19T23:03:57.814Z,26.43
2023-01-19T23:06:31.401Z,26.47
2023-01-19T23:09:08.206Z,26.41
2023-01-19T23:11:44.449Z,26.51
2023-01-19T23:14:19.222Z,26.34
2023-01-19T23:16:49.997Z,26.27
2023-01-19T23:19:21.989Z,26.33
2023-01-19T23:21:54.124Z,26.35
2023-01-19T23:24:25.026Z,26.27
2023-01-19T23:26:55.602Z,26.26
2023-01-19T23:29:26.424Z,26.18
2023-01-19T23:31:57.477Z,26.19
2023-01-19T23:34:28.395Z,26.09
2023-01-19T23:36:58.538Z,26.13
2023-01-19T23:39:29.551Z,25.99
2023-01-19T23:42:01.450Z,25.84
2023-01-19T23:44:33.771Z,25.92
2023-01-19T23:47:05.538Z,25.89
2023-01-19T23:49:37.406Z,25.80
2023-01-19T23:52:08.705Z,25.74
2023-01-19T23:54:40.136Z,25.88
2023-01-19T23:57:10.659Z,25.63
2023-01-19T23:59:42.614Z,25.62
